Time;durP1;ratioP1;P1;durP2;ratioP2;P2;SDS_P1;SDS_P2;PMS_P1;PMS_P2;Temp;Humidity;BMP_temperature;BMP_pressure;BME280_temperature;BME280_humidity;BME280_pressure;Samples;Min_cycle;Max_cycle;Signal;HPM_P1;HPM_P2
2022/12/28 00:00:22;;;;;;;16.50;2.72;;;;;;;5.32;100.00;99426.75;4981015;28;20076;-93
2022/12/28 00:02:48;;;;;;;25.15;3.45;;;;;;;5.30;100.00;99428.66;5012186;28;20033;-93
2022/12/28 00:05:16;;;;;;;23.55;3.80;;;;;;;5.31;100.00;99437.34;4972204;28;20050;-92
2022/12/28 00:07:43;;;;;;;17.98;2.95;;;;;;;5.24;100.00;99428.38;4987969;28;20038;-91
2022/12/28 00:10:09;;;;;;;18.35;3.15;;;;;;;5.21;100.00;99421.63;5014865;28;20132;-92
2022/12/28 00:12:34;;;;;;;22.55;3.17;;;;;;;5.16;100.00;99422.00;5017839;28;20104;-92
2022/12/28 00:15:00;;;;;;;13.63;2.65;;;;;;;5.14;100.00;99420.50;5006274;28;20071;-92
2022/12/28 00:17:26;;;;;;;19.67;3.05;;;;;;;5.11;100.00;99426.00;5000502;28;20434;-92
2022/12/28 00:19:52;;;;;;;15.93;3.33;;;;;;;5.08;100.00;99422.69;5020649;28;20041;-93
2022/12/28 00:22:18;;;;;;;14.80;3.15;;;;;;;5.09;100.00;99432.22;4974992;28;20387;-92
2022/12/28 00:24:44;;;;;;;18.42;2.78;;;;;;;5.13;100.00;99419.66;4999612;28;20030;-93
2022/12/28 00:27:10;;;;;;;13.63;3.40;;;;;;;5.12;100.00;99398.84;5018631;28;20042;-92
2022/12/28 00:29:35;;;;;;;22.15;4.43;;;;;;;5.16;100.00;99392.38;5003877;28;20675;-93
2022/12/28 00:32:02;;;;;;;18.30;2.65;;;;;;;5.20;100.00;99396.38;5012168;28;20033;-91
2022/12/28 00:34:27;;;;;;;20.75;3.20;;;;;;;5.14;100.00;99391.69;5020979;28;20040;-92
2022/12/28 00:36:53;;;;;;;20.17;3.75;;;;;;;5.09;100.00;99382.47;5015523;28;20399;-93
2022/12/28 00:39:20;;;;;;;23.98;3.30;;;;;;;5.09;100.00;99386.84;5006586;28;20048;-92
2022/12/28 00:41:46;;;;;;;15.77;2.60;;;;;;;5.04;100.00;99386.44;5000835;28;20469;-92
2022/12/28 00:44:12;;;;;;;15.88;3.38;;;;;;;5.06;100.00;99390.59;4999611;28;20025;-92
2022/12/28 00:46:37;;;;;;;21.90;2.65;;;;;;;5.01;100.00;99381.47;4991840;28;20388;-92
2022/12/28 00:49:03;;;;;;;18.17;3.15;;;;;;;5.01;100.00;99376.22;4996638;28;20064;-92
2022/12/28 00:51:29;;;;;;;10.95;3.10;;;;;;;5.05;100.00;99370.56;5003957;28;20033;-92
2022/12/28 00:53:55;;;;;;;15.80;3.13;;;;;;;5.08;100.00;99361.63;5014493;28;20096;-92
2022/12/28 00:56:22;;;;;;;20.70;2.80;;;;;;;5.07;100.00;99359.97;5006314;28;20107;-92
2022/12/28 00:58:48;;;;;;;13.23;2.60;;;;;;;5.05;100.00;99347.00;4994380;28;20122;-93
2022/12/28 01:01:17;;;;;;;15.27;2.95;;;;;;;5.02;100.00;99336.81;5014790;28;20073;-93
2022/12/28 01:03:43;;;;;;;16.88;2.67;;;;;;;4.98;100.00;99338.03;4988123;28;20437;-91
2022/12/28 01:06:11;;;;;;;14.82;3.25;;;;;;;4.97;100.00;99336.38;4973771;28;20049;-92
2022/12/28 01:08:37;;;;;;;17.17;3.05;;;;;;;4.95;100.00;99330.47;4987787;28;20045;-93
2022/12/28 01:11:26;;;;;;;15.88;2.67;;;;;;;4.93;100.00;99329.75;5004663;28;20120;-92
2022/12/28 01:13:54;;;;;;;14.25;2.53;;;;;;;4.82;100.00;99339.41;4981910;28;20045;-92
2022/12/28 01:16:25;;;;;;;19.63;3.03;;;;;;;4.80;100.00;99332.63;4991299;28;20037;-92
2022/12/28 01:18:54;;;;;;;17.40;3.55;;;;;;;4.82;100.00;99328.94;4989582;28;20478;-92
2022/12/28 01:21:22;;;;;;;23.85;3.95;;;;;;;4.80;100.00;99323.00;5017496;28;20026;-91
2022/12/28 01:23:48;;;;;;;20.50;2.80;;;;;;;4.82;100.00;99330.72;4983875;28;20107;-90
2022/12/28 01:26:15;;;;;;;14.10;2.65;;;;;;;4.82;100.00;99309.75;4998471;28;20034;-91
2022/12/28 01:28:41;;;;;;;14.75;3.20;;;;;;;4.87;100.00;99317.22;5012484;28;20080;-91
2022/12/28 01:31:13;;;;;;;9.77;1.85;;;;;;;4.89;100.00;99307.44;5014328;28;20091;-91
2022/12/28 01:33:40;;;;;;;17.85;2.80;;;;;;;4.86;100.00;99303.28;5013960;28;20475;-90
2022/12/28 01:36:18;;;;;;;23.48;4.60;;;;;;;4.88;100.00;99303.97;5030515;28;20516;-91
2022/12/28 01:38:44;;;;;;;19.13;3.17;;;;;;;4.87;100.00;99294.47;5022280;28;20374;-91
2022/12/28 01:41:13;;;;;;;19.02;3.53;;;;;;;4.89;100.00;99273.41;5021111;28;20029;-91
2022/12/28 01:43:44;;;;;;;16.98;2.60;;;;;;;4.93;100.00;99273.00;5012284;28;20030;-91
2022/12/28 01:46:17;;;;;;;27.05;3.35;;;;;;;4.97;100.00;99270.91;5028576;28;20036;-91
2022/12/28 01:48:57;;;;;;;15.93;3.50;;;;;;;5.04;100.00;99276.41;4997828;28;20091;-91
2022/12/28 01:51:25;;;;;;;14.20;3.58;;;;;;;5.05;100.00;99264.97;5012163;28;20070;-91
2022/12/28 01:53:52;;;;;;;21.90;5.60;;;;;;;5.07;100.00;99250.78;5001037;28;20037;-91
2022/12/28 01:56:22;;;;;;;18.25;4.47;;;;;;;5.07;100.00;99247.34;4998255;28;20033;-91
2022/12/28 01:58:48;;;;;;;13.32;3.50;;;;;;;5.07;100.00;99245.56;5026443;28;20051;-92
2022/12/28 02:01:16;;;;;;;20.58;3.92;;;;;;;5.06;100.00;99237.84;4996994;28;20061;-92
2022/12/28 02:03:42;;;;;;;13.00;2.90;;;;;;;5.08;100.00;99243.78;4960572;28;20080;-91
2022/12/28 02:06:11;;;;;;;17.17;3.15;;;;;;;5.13;100.00;99235.50;4978655;28;20502;-91
2022/12/28 02:08:48;;;;;;;17.50;3.05;;;;;;;5.15;100.00;99225.69;5036756;28;20110;-92
2022/12/28 02:11:17;;;;;;;24.20;2.90;;;;;;;5.15;100.00;99226.53;5017675;28;20025;-92
2022/12/28 02:13:48;;;;;;;27.30;3.47;;;;;;;5.17;100.00;99213.28;4997704;28;20044;-92
2022/12/28 02:16:14;;;;;;;22.67;3.00;;;;;;;5.16;100.00;99203.78;4996875;28;20034;-92
2022/12/28 02:18:43;;;;;;;16.30;2.50;;;;;;;5.17;100.00;99201.03;4994751;28;20056;-93
2022/12/28 02:21:18;;;;;;;19.10;3.00;;;;;;;5.18;100.00;99200.03;5026054;28;20037;-93
2022/12/28 02:23:47;;;;;;;18.40;2.63;;;;;;;5.21;100.00;99210.25;4997421;28;20042;-92
2022/12/28 02:26:19;;;;;;;19.48;2.70;;;;;;;5.28;100.00;99191.34;5015638;28;20026;-92
2022/12/28 02:29:23;;;;;;;17.83;3.55;;;;;;;5.25;100.00;99184.59;5023533;28;20040;-92
2022/12/28 02:32:09;;;;;;;18.60;2.78;;;;;;;5.26;100.00;99170.53;4976858;28;20050;-91
2022/12/28 02:34:51;;;;;;;18.50;3.33;;;;;;;5.27;100.00;99156.44;4996458;28;20057;-92
2022/12/28 02:37:29;;;;;;;20.63;3.03;;;;;;;5.29;100.00;99140.59;4992981;28;20128;-92
2022/12/28 02:40:01;;;;;;;20.48;3.00;;;;;;;5.30;100.00;99129.97;5021313;28;20038;-92
2022/12/28 02:42:29;;;;;;;17.77;3.35;;;;;;;5.32;100.00;99124.56;4997397;28;20033;-92
2022/12/28 02:51:01;;;;;;;16.23;2.25;;;;;;;5.33;100.00;99103.50;5012221;28;20566;-91
2022/12/28 02:53:58;;;;;;;14.88;3.05;;;;;;;5.29;100.00;99102.13;4986308;28;20042;-92
2022/12/28 02:56:39;;;;;;;19.80;2.60;;;;;;;5.21;100.00;99097.59;4998984;28;20125;-92
2022/12/28 02:59:35;;;;;;;17.80;3.90;;;;;;;5.04;100.00;99090.47;4990629;28;20034;-92
2022/12/28 03:02:19;;;;;;;15.85;2.78;;;;;;;4.88;100.00;99085.81;5010204;28;20038;-91
2022/12/28 03:05:17;;;;;;;20.30;2.97;;;;;;;4.80;100.00;99074.28;4998909;28;20137;-92
2022/12/28 03:08:23;;;;;;;14.23;4.05;;;;;;;4.81;100.00;99064.63;4997554;28;20116;-93
2022/12/28 03:11:09;;;;;;;13.52;2.80;;;;;;;4.82;100.00;99053.19;5007641;28;20830;-92
2022/12/28 03:13:55;;;;;;;18.38;2.65;;;;;;;4.79;100.00;99043.00;5008212;28;20038;-92
2022/12/28 03:16:29;;;;;;;16.13;2.90;;;;;;;4.77;100.00;99032.66;5011903;28;20117;-92
2022/12/28 03:33:07;;;;;;;17.55;2.60;;;;;;;4.76;100.00;99004.03;5018129;28;20462;-92
2022/12/28 03:35:44;;;;;;;17.38;3.70;;;;;;;4.78;100.00;98996.84;4996154;28;20470;-91
2022/12/28 03:38:26;;;;;;;17.15;2.83;;;;;;;4.75;100.00;98977.00;5013219;28;20034;-91
2022/12/28 03:41:08;;;;;;;17.63;3.47;;;;;;;4.75;100.00;98974.38;5013363;28;20030;-92
2022/12/28 03:43:44;;;;;;;20.58;3.72;;;;;;;4.74;100.00;98953.59;5022947;28;20413;-92
2022/12/28 03:46:21;;;;;;;19.08;3.20;;;;;;;4.65;100.00;98948.25;5013922;28;20030;-92
2022/12/28 03:48:48;;;;;;;13.20;2.33;;;;;;;4.62;100.00;98934.63;5002532;28;20894;-91
2022/12/28 03:51:19;;;;;;;20.10;2.90;;;;;;;4.59;100.00;98922.66;4980307;28;20537;-91
2022/12/28 03:53:46;;;;;;;11.70;2.25;;;;;;;4.53;100.00;98916.19;5013186;28;20034;-92
2022/12/28 03:56:18;;;;;;;14.50;2.63;;;;;;;4.54;100.00;98896.09;4988688;28;20034;-91
2022/12/28 03:58:46;;;;;;;11.88;2.30;;;;;;;4.52;100.00;98885.78;4992118;28;20049;-92
2022/12/28 04:01:14;;;;;;;17.60;2.05;;;;;;;4.54;100.00;98878.59;4976698;28;20505;-91
2022/12/28 04:03:41;;;;;;;20.48;2.22;;;;;;;4.57;100.00;98869.66;4999705;28;20050;-92
2022/12/28 04:06:08;;;;;;;14.15;2.38;;;;;;;4.58;100.00;98866.88;4992153;28;20058;-92
2022/12/28 04:08:34;;;;;;;15.63;2.33;;;;;;;4.58;100.00;98863.44;5009772;28;20069;-92
2022/12/28 04:11:03;;;;;;;13.07;2.53;;;;;;;4.62;100.00;98850.91;5008723;28;20061;-91
2022/12/28 04:13:30;;;;;;;12.23;2.75;;;;;;;4.63;100.00;98839.44;4987346;28;20105;-93
2022/12/28 04:16:09;;;;;;;11.70;2.63;;;;;;;4.65;100.00;98820.00;4995051;28;20045;-92
2022/12/28 04:18:36;;;;;;;14.90;2.00;;;;;;;4.66;100.00;98826.06;5014949;28;20061;-92
2022/12/28 04:21:03;;;;;;;14.75;2.65;;;;;;;4.67;100.00;98804.97;4999987;28;21183;-92
2022/12/28 04:23:30;;;;;;;12.20;1.92;;;;;;;4.72;100.00;98810.63;5012562;28;20532;-92
2022/12/28 04:26:17;;;;;;;17.90;3.38;;;;;;;4.77;100.00;98796.25;5009746;28;20046;-92
2022/12/28 04:28:45;;;;;;;14.38;2.55;;;;;;;4.78;100.00;98788.25;5021605;28;20041;-92
2022/12/28 04:31:29;;;;;;;18.23;2.42;;;;;;;4.82;100.00;98783.53;5006617;28;20025;-93
2022/12/28 04:34:05;;;;;;;;;;;;;;;4.82;100.00;98779.16;4996221;28;20030;-91
2022/12/28 04:36:34;;;;;;;14.98;2.97;;;;;;;4.88;100.00;98751.53;4996145;28;19913;-92
2022/12/28 04:39:02;;;;;;;17.77;2.67;;;;;;;4.91;100.00;98745.16;4996606;28;20084;-91
2022/12/28 04:41:27;;;;;;;21.88;2.20;;;;;;;4.94;100.00;98734.38;5010016;28;20086;-92
2022/12/28 04:43:54;;;;;;;16.33;2.58;;;;;;;4.99;100.00;98731.31;5012851;28;20030;-91
2022/12/28 04:46:21;;;;;;;10.55;2.63;;;;;;;5.00;100.00;98725.94;4993501;28;20041;-84
2022/12/28 04:48:46;;;;;;;19.33;2.55;;;;;;;5.02;100.00;98716.13;4977245;28;20042;-85
2022/12/28 04:51:17;;;;;;;22.25;3.58;;;;;;;5.03;100.00;98702.06;4976881;28;20033;-91
2022/12/28 04:53:43;;;;;;;22.05;3.28;;;;;;;5.06;100.00;98711.44;5009068;28;20039;-92
2022/12/28 04:56:11;;;;;;;16.55;4.00;;;;;;;5.08;100.00;98699.81;4977312;28;20034;-84
2022/12/28 04:58:38;;;;;;;19.58;4.07;;;;;;;5.11;100.00;98687.41;4993400;28;20032;-85
2022/12/28 05:01:05;;;;;;;22.20;3.08;;;;;;;5.13;100.00;98677.59;4994169;28;20034;-92
2022/12/28 05:03:32;;;;;;;14.65;2.97;;;;;;;5.13;100.00;98667.13;4995431;28;20434;-93
2022/12/28 05:06:03;;;;;;;18.50;3.85;;;;;;;5.17;100.00;98653.56;4991549;28;20586;-92
2022/12/28 05:08:32;;;;;;;25.88;3.40;;;;;;;5.19;100.00;98646.38;4995389;28;20041;-93
2022/12/28 05:11:00;;;;;;;16.38;2.90;;;;;;;5.22;100.00;98634.78;5021742;28;20034;-93
2022/12/28 05:13:27;;;;;;;14.98;3.20;;;;;;;5.22;100.00;98621.69;4981295;28;20065;-92
2022/12/28 05:15:52;;;;;;;20.50;3.72;;;;;;;5.23;100.00;98615.44;4984654;28;20480;-93
2022/12/28 05:18:18;;;;;;;19.65;3.53;;;;;;;5.23;100.00;98604.97;4995056;28;20120;-92
2022/12/28 05:20:44;;;;;;;26.50;3.25;;;;;;;5.26;100.00;98602.03;4994682;28;20030;-92
2022/12/28 05:23:09;;;;;;;19.63;3.30;;;;;;;5.27;100.00;98580.09;5021543;28;20049;-92
2022/12/28 05:25:35;;;;;;;19.27;2.92;;;;;;;5.31;100.00;98578.81;5008800;28;20046;-92
2022/12/28 05:28:01;;;;;;;20.70;3.70;;;;;;;5.31;100.00;98564.91;5006672;28;20053;-93
2022/12/28 05:30:27;;;;;;;18.98;2.60;;;;;;;5.32;100.00;98559.50;4994958;28;20084;-92
2022/12/28 05:32:52;;;;;;;23.77;3.58;;;;;;;5.32;100.00;98533.31;4979174;28;20034;-92
2022/12/28 05:35:18;;;;;;;19.17;2.72;;;;;;;5.36;100.00;98525.13;4994101;28;20092;-92
2022/12/28 05:37:44;;;;;;;18.92;3.08;;;;;;;5.42;100.00;98514.00;5008511;28;20066;-93
2022/12/28 05:40:10;;;;;;;31.83;4.07;;;;;;;5.50;100.00;98497.50;4992813;28;20034;-92
2022/12/28 05:42:36;;;;;;;20.48;3.38;;;;;;;5.55;100.00;98488.19;4992340;28;20042;-92
2022/12/28 05:45:02;;;;;;;24.17;2.92;;;;;;;5.61;100.00;98478.84;5013751;28;20032;-92
2022/12/28 05:47:28;;;;;;;23.27;3.45;;;;;;;5.67;100.00;98466.91;5019060;28;20065;-93
2022/12/28 05:49:54;;;;;;;20.88;2.65;;;;;;;5.68;100.00;98448.41;4978713;28;20053;-92
2022/12/28 05:52:19;;;;;;;15.38;3.13;;;;;;;5.77;100.00;98445.78;5009846;28;20034;-92
2022/12/28 05:54:45;;;;;;;27.52;3.30;;;;;;;5.82;100.00;98428.59;5011514;28;20038;-92
2022/12/28 05:57:11;;;;;;;19.27;2.78;;;;;;;5.94;100.00;98418.56;4996137;28;20038;-93
2022/12/28 05:59:37;;;;;;;15.48;3.13;;;;;;;5.98;100.00;98403.34;5002510;28;20038;-93
2022/12/28 06:02:02;;;;;;;14.05;2.13;;;;;;;6.04;100.00;98391.34;4981924;28;20033;-93
2022/12/28 06:04:28;;;;;;;13.40;2.47;;;;;;;6.09;100.00;98381.22;5028717;28;20044;-92
2022/12/28 06:06:54;;;;;;;19.55;2.35;;;;;;;6.12;100.00;98373.03;4996182;28;20034;-92
2022/12/28 06:09:20;;;;;;;16.20;1.88;;;;;;;6.16;100.00;98369.06;4999946;28;20120;-92
2022/12/28 06:11:46;;;;;;;14.38;2.40;;;;;;;6.22;100.00;98351.84;5012147;28;20038;-85
2022/12/28 06:14:11;;;;;;;11.15;1.40;;;;;;;6.24;100.00;98349.91;5012162;28;20030;-86
2022/12/28 06:16:40;;;;;;;9.57;1.77;;;;;;;6.26;100.00;98339.22;4996078;28;20108;-92
2022/12/28 06:19:08;;;;;;;8.38;1.48;;;;;;;6.27;100.00;98330.38;4991662;28;20046;-93
2022/12/28 06:21:37;;;;;;;13.90;1.45;;;;;;;6.31;100.00;98321.16;5007847;28;20084;-92
2022/12/28 06:24:03;;;;;;;9.02;1.45;;;;;;;6.32;100.00;98301.81;5010788;28;20061;-93
2022/12/28 06:26:31;;;;;;;10.00;1.30;;;;;;;6.35;100.00;98295.41;5009604;28;20038;-92
2022/12/28 06:28:58;;;;;;;6.80;1.02;;;;;;;6.36;100.00;98271.63;4979940;28;20549;-92
2022/12/28 06:31:26;;;;;;;6.75;1.20;;;;;;;6.37;100.00;98261.94;4992321;28;20045;-86
2022/12/28 06:33:53;;;;;;;7.15;0.80;;;;;;;6.38;100.00;98255.69;4992852;28;20067;-86
2022/12/28 06:36:28;;;;;;;10.23;0.98;;;;;;;6.41;100.00;98239.63;4989514;28;20085;-85
2022/12/28 06:38:56;;;;;;;4.90;0.93;;;;;;;6.40;100.00;98230.91;4994835;28;20041;-85
2022/12/28 06:41:24;;;;;;;6.68;1.00;;;;;;;6.41;100.00;98219.44;4997114;28;20054;-92
2022/12/28 06:43:50;;;;;;;4.57;1.02;;;;;;;6.42;100.00;98201.88;5014186;28;20410;-92
2022/12/28 06:46:18;;;;;;;3.25;0.73;;;;;;;6.44;100.00;98189.41;5014271;28;20109;-93
2022/12/28 06:48:45;;;;;;;2.70;0.77;;;;;;;6.47;100.00;98180.38;5014658;28;20034;-93
2022/12/28 06:51:25;;;;;;;2.65;0.60;;;;;;;6.50;100.00;98166.91;4998328;28;20045;-93
2022/12/28 06:53:52;;;;;;;2.90;0.47;;;;;;;6.47;100.00;98148.91;4996386;28;20042;-92
2022/12/28 06:56:24;;;;;;;2.65;0.32;;;;;;;6.51;100.00;98145.75;5001949;28;20042;-86
2022/12/28 06:58:51;;;;;;;3.95;0.50;;;;;;;6.53;100.00;98135.88;4988308;28;20121;-85
2022/12/28 07:01:25;;;;;;;3.67;0.35;;;;;;;6.59;100.00;98126.50;4994472;28;20037;-86
2022/12/28 07:03:54;;;;;;;3.50;0.32;;;;;;;6.62;100.00;98120.06;4963079;28;20156;-85
2022/12/28 07:06:22;;;;;;;2.22;0.30;;;;;;;6.67;100.00;98102.78;5003647;28;20053;-86
2022/12/28 07:08:50;;;;;;;1.08;0.20;;;;;;;6.72;100.00;98102.25;5002646;28;20510;-85
2022/12/28 07:11:21;;;;;;;2.92;0.28;;;;;;;6.81;100.00;98092.50;5011403;28;20042;-85
2022/12/28 07:13:47;;;;;;;5.25;0.20;;;;;;;6.87;100.00;98075.22;5024684;28;20212;-85
2022/12/28 07:16:18;;;;;;;2.70;0.20;;;;;;;6.97;100.00;98065.28;5001670;28;20045;-85
2022/12/28 07:18:45;;;;;;;1.20;0.10;;;;;;;7.00;100.00;98051.78;4988527;28;20030;-85
2022/12/28 07:21:11;;;;;;;1.50;0.10;;;;;;;7.07;100.00;98042.16;5011420;28;20026;-86
2022/12/28 07:23:37;;;;;;;0.55;0.10;;;;;;;7.12;100.00;98038.19;4991254;28;20038;-85
2022/12/28 07:26:09;;;;;;;0.38;0.00;;;;;;;7.20;100.00;98038.09;4994371;28;20029;-85
2022/12/28 07:28:40;;;;;;;1.55;0.32;;;;;;;7.26;100.00;98026.06;4988847;28;20399;-86
2022/12/28 07:31:07;;;;;;;1.05;0.20;;;;;;;7.28;100.00;98018.78;5009024;28;20068;-93
2022/12/28 07:33:34;;;;;;;0.75;0.10;;;;;;;7.36;100.00;98007.38;5012662;28;20034;-93
2022/12/28 07:36:01;;;;;;;1.20;0.00;;;;;;;7.44;100.00;98007.25;5013198;28;20065;-92
2022/12/28 07:38:26;;;;;;;0.03;0.03;;;;;;;7.47;100.00;97998.19;5009369;28;20060;-92
2022/12/28 07:40:59;;;;;;;1.20;0.10;;;;;;;7.48;100.00;97989.31;4999133;28;20522;-86
2022/12/28 07:43:25;;;;;;;0.40;0.00;;;;;;;7.52;100.00;97972.97;5022648;28;20034;-85
2022/12/28 07:46:03;;;;;;;0.75;0.20;;;;;;;7.62;100.00;97972.69;4977212;28;20038;-92
2022/12/28 07:48:33;;;;;;;1.13;0.22;;;;;;;7.69;100.00;97968.28;5008217;28;20037;-92
2022/12/28 07:51:07;;;;;;;0.80;0.10;;;;;;;7.71;100.00;97954.16;4994232;28;20057;-85
2022/12/28 07:53:33;;;;;;;0.40;0.10;;;;;;;7.71;100.00;97941.00;5004233;28;20042;-85
2022/12/28 07:55:59;;;;;;;0.10;0.10;;;;;;;7.81;100.00;97936.25;5004759;28;20049;-85
2022/12/28 07:58:25;;;;;;;0.40;0.20;;;;;;;7.85;100.00;97928.78;4989145;28;20069;-85
2022/12/28 08:00:52;;;;;;;0.28;0.10;;;;;;;7.90;100.00;97918.53;4989807;28;20040;-85
2022/12/28 08:03:19;;;;;;;0.52;0.52;;;;;;;7.91;100.00;97901.72;4992611;28;20091;-85
2022/12/28 08:05:45;;;;;;;0.17;0.17;;;;;;;7.92;100.00;97896.28;4990479;28;20507;-85
2022/12/28 08:08:11;;;;;;;0.10;0.10;;;;;;;7.92;100.00;97882.31;5009138;28;20525;-86
2022/12/28 08:10:36;;;;;;;0.10;0.10;;;;;;;7.94;100.00;97883.75;5007939;28;20033;-92
2022/12/28 08:13:02;;;;;;;0.68;0.17;;;;;;;7.94;100.00;97875.06;4996173;28;20073;-93
2022/12/28 08:15:28;;;;;;;0.70;0.20;;;;;;;7.97;100.00;97869.41;4989623;28;20041;-92
2022/12/28 08:17:55;;;;;;;0.20;0.20;;;;;;;8.00;100.00;97858.50;5008841;28;20498;-93
2022/12/28 08:20:21;;;;;;;0.20;0.20;;;;;;;8.01;100.00;97843.53;4995543;28;20137;-86
2022/12/28 08:22:48;;;;;;;0.30;0.20;;;;;;;8.01;100.00;97844.34;4989586;28;20042;-84
2022/12/28 08:25:14;;;;;;;1.55;0.30;;;;;;;8.02;100.00;97837.25;5004822;28;20040;-85
2022/12/28 08:27:39;;;;;;;1.23;0.30;;;;;;;8.04;100.00;97824.75;4992497;28;20033;-93
2022/12/28 08:30:06;;;;;;;0.20;0.20;;;;;;;8.10;100.00;97813.44;4999235;28;20459;-93
2022/12/28 08:32:32;;;;;;;1.48;0.30;;;;;;;8.11;100.00;97809.78;4967298;28;20452;-85
2022/12/28 08:34:57;;;;;;;0.57;0.32;;;;;;;8.15;100.00;97804.97;4952388;28;20871;-85
2022/12/28 08:37:23;;;;;;;0.30;0.30;;;;;;;8.19;100.00;97799.13;5011821;28;20049;-93
2022/12/28 08:39:49;;;;;;;0.20;0.20;;;;;;;8.21;100.00;97788.41;4995164;28;20037;-94
2022/12/28 08:42:15;;;;;;;0.98;0.20;;;;;;;8.26;100.00;97785.19;4992688;28;20038;-94
2022/12/28 08:44:40;;;;;;;5.38;0.25;;;;;;;8.28;100.00;97778.72;4989770;28;20104;-93
2022/12/28 08:47:06;;;;;;;1.30;0.10;;;;;;;8.30;100.00;97766.16;4991868;28;20076;-93
2022/12/28 08:49:32;;;;;;;0.20;0.10;;;;;;;8.34;100.00;97752.63;5003494;28;20080;-93
2022/12/28 08:51:58;;;;;;;0.10;0.10;;;;;;;8.40;100.00;97757.09;5014034;28;20080;-93
2022/12/28 08:54:24;;;;;;;0.30;0.08;;;;;;;8.44;100.00;97748.59;5000407;28;20034;-93
2022/12/28 08:56:52;;;;;;;1.25;0.20;;;;;;;8.50;100.00;97747.03;4988859;28;20478;-94
2022/12/28 08:59:18;;;;;;;0.70;0.10;;;;;;;8.54;100.00;97739.53;4979137;28;20056;-93
2022/12/28 09:01:45;;;;;;;3.50;0.20;;;;;;;8.59;100.00;97726.59;5011045;28;20503;-93
2022/12/28 09:04:19;;;;;;;1.40;0.10;;;;;;;8.64;100.00;97723.38;4979162;28;20049;-93
2022/12/28 09:06:45;;;;;;;2.15;0.10;;;;;;;8.65;100.00;97715.28;5011938;28;20096;-92
2022/12/28 09:09:13;;;;;;;0.63;0.10;;;;;;;8.69;100.00;97715.69;4993986;28;20041;-94
2022/12/28 09:11:40;;;;;;;0.95;0.10;;;;;;;8.76;100.00;97703.34;5011886;28;20049;-93
2022/12/28 09:14:11;;;;;;;0.32;0.10;;;;;;;8.80;100.00;97696.69;5012540;28;20256;-94
2022/12/28 09:16:37;;;;;;;0.38;0.10;;;;;;;8.79;100.00;97681.88;5010179;28;20042;-94
2022/12/28 09:19:06;;;;;;;0.10;0.00;;;;;;;8.84;100.00;97685.75;5021964;28;20037;-94
2022/12/28 09:21:36;;;;;;;0.10;0.00;;;;;;;8.88;100.00;97687.78;4992157;28;20034;-93
2022/12/28 09:24:02;;;;;;;0.03;0.03;;;;;;;8.88;100.00;97690.41;4995537;28;20038;-93
2022/12/28 09:26:30;;;;;;;1.90;0.20;;;;;;;8.92;100.00;97682.88;5011520;28;20049;-92
2022/12/28 09:28:59;;;;;;;1.33;0.10;;;;;;;8.93;100.00;97680.06;5005633;28;20045;-93
2022/12/28 09:31:28;;;;;;;0.32;0.10;;;;;;;8.95;100.00;97669.31;4996247;28;20041;-93
2022/12/28 09:34:00;;;;;;;0.35;0.10;;;;;;;8.97;100.00;97664.66;4979656;28;20487;-93
2022/12/28 09:36:38;;;;;;;1.88;0.20;;;;;;;9.00;100.00;97658.97;5006517;28;20041;-93
2022/12/28 09:39:13;;;;;;;1.20;0.10;;;;;;;9.03;100.00;97655.16;4997538;28;20124;-92
2022/12/28 09:41:48;;;;;;;2.27;0.20;;;;;;;9.05;100.00;97656.56;4993148;28;20038;-94
2022/12/28 09:44:14;;;;;;;0.65;0.15;;;;;;;9.04;100.00;97654.94;4997479;28;20538;-92
2022/12/28 09:46:46;;;;;;;3.05;0.20;;;;;;;9.11;100.00;97644.38;4995902;28;20068;-93
2022/12/28 09:49:17;;;;;;;1.17;0.20;;;;;;;9.14;100.00;97635.28;5015674;28;20100;-91
2022/12/28 09:52:04;;;;;;;2.95;0.10;;;;;;;9.14;100.00;97627.38;4998200;28;20089;-92
2022/12/28 09:54:30;;;;;;;0.25;0.13;;;;;;;9.12;100.00;97619.66;5013246;28;20516;-92
2022/12/28 09:56:56;;;;;;;3.50;0.20;;;;;;;9.14;100.00;97624.72;4993164;28;20041;-92
2022/12/28 09:59:24;;;;;;;0.80;0.20;;;;;;;9.18;100.00;97624.13;4999306;28;20372;-92
2022/12/28 10:01:59;;;;;;;2.00;0.05;;;;;;;9.23;100.00;97615.59;4995717;28;20108;-92
2022/12/28 10:04:25;;;;;;;0.90;0.10;;;;;;;9.23;100.00;97618.22;4998024;28;20518;-92
2022/12/28 10:06:52;;;;;;;0.65;0.10;;;;;;;9.25;100.00;97613.53;5015446;28;20133;-92
2022/12/28 10:09:32;;;;;;;0.20;0.05;;;;;;;9.34;100.00;97615.97;5014190;28;20041;-92
2022/12/28 10:11:59;;;;;;;1.52;0.10;;;;;;;9.36;100.00;97604.22;4968447;28;20022;-92
2022/12/28 10:14:33;;;;;;;3.15;0.15;;;;;;;9.42;100.00;97600.75;4985049;28;20383;-92
2022/12/28 10:16:59;;;;;;;0.80;0.52;;;;;;;9.42;100.00;97605.19;5010078;28;20044;-93
2022/12/28 10:19:27;;;;;;;0.55;0.10;;;;;;;9.48;100.00;97596.47;5009055;28;20108;-93
2022/12/28 10:22:05;;;;;;;0.32;0.00;;;;;;;9.51;100.00;97595.22;4993537;28;20045;-92
2022/12/28 10:24:31;;;;;;;0.10;0.10;;;;;;;9.51;100.00;97596.03;5006669;28;20066;-93
2022/12/28 10:26:58;;;;;;;0.10;0.10;;;;;;;9.57;100.00;97604.97;5012010;28;20041;-92
2022/12/28 10:29:25;;;;;;;1.40;0.15;;;;;;;9.62;100.00;97596.44;4980658;28;20042;-94
2022/12/28 10:32:01;;;;;;;2.28;0.30;;;;;;;9.65;100.00;97598.66;4977329;28;20099;-92
2022/12/28 10:34:30;;;;;;;0.45;0.20;;;;;;;9.63;100.00;97601.50;5008694;28;20049;-93
2022/12/28 10:37:03;;;;;;;1.55;0.28;;;;;;;9.68;100.00;97595.59;5009997;28;20026;-95
2022/12/28 10:39:31;;;;;;;1.30;0.10;;;;;;;9.70;100.00;97601.44;5006585;28;20084;-93
2022/12/28 10:41:59;;;;;;;0.10;0.10;;;;;;;9.72;100.00;97585.41;4958550;28;20421;-88
2022/12/28 10:44:32;;;;;;;0.75;0.20;;;;;;;9.72;100.00;97569.59;5008568;28;20131;-93
2022/12/28 10:47:00;;;;;;;1.92;0.40;;;;;;;9.77;100.00;97580.31;5010574;28;20030;-92
2022/12/28 10:49:34;;;;;;;0.63;0.13;;;;;;;9.84;100.00;97575.03;4996149;28;20061;-92
2022/12/28 10:52:18;;;;;;;0.20;0.20;;;;;;;9.87;100.00;97575.41;4994877;28;20026;-93
2022/12/28 10:54:44;;;;;;;0.52;0.10;;;;;;;9.88;100.00;97561.19;4980376;28;20033;-91
2022/12/28 10:57:27;;;;;;;0.08;0.08;;;;;;;9.93;100.00;97560.56;5004674;28;20069;-92
2022/12/28 11:00:13;;;;;;;0.20;0.10;;;;;;;9.95;100.00;97570.91;5007627;28;20490;-91
2022/12/28 11:02:39;;;;;;;0.63;0.00;;;;;;;9.98;100.00;97570.47;5010994;28;20041;-92
2022/12/28 11:05:05;;;;;;;0.88;0.65;;;;;;;10.00;100.00;97573.72;5014413;28;20045;-93
2022/12/28 11:07:39;;;;;;;0.95;0.10;;;;;;;10.04;100.00;97562.53;5009928;28;20104;-92
2022/12/28 11:10:23;;;;;;;5.00;0.20;;;;;;;10.04;100.00;97567.81;5007857;28;20088;-92
2022/12/28 11:12:53;;;;;;;4.15;0.57;;;;;;;9.99;100.00;97565.00;4967050;28;20045;-91
2022/12/28 11:15:22;;;;;;;2.83;0.55;;;;;;;9.94;100.00;97567.44;5014247;28;20033;-92
2022/12/28 11:17:57;;;;;;;5.25;0.70;;;;;;;9.91;100.00;97559.94;5012713;28;20049;-90
2022/12/28 11:20:31;;;;;;;5.60;1.17;;;;;;;9.84;100.00;97546.81;4995444;28;20095;-93
2022/12/28 11:22:57;;;;;;;8.73;0.85;;;;;;;9.80;100.00;97551.69;5001675;28;20029;-90
2022/12/28 11:25:30;;;;;;;9.98;2.17;;;;;;;9.76;100.00;97552.34;5008528;28;20069;-92
2022/12/28 11:27:57;;;;;;;11.45;1.67;;;;;;;9.72;100.00;97544.03;4997566;28;20489;-91
2022/12/28 11:30:22;;;;;;;15.95;1.88;;;;;;;9.71;100.00;97560.06;4983991;28;20045;-91
2022/12/28 11:32:53;;;;;;;10.18;1.40;;;;;;;9.71;100.00;97539.78;4996854;28;20497;-90
2022/12/28 11:35:31;;;;;;;9.90;1.48;;;;;;;9.72;100.00;97551.13;4998997;28;20037;-91
2022/12/28 11:38:00;;;;;;;8.68;1.67;;;;;;;9.75;100.00;97555.97;4996813;28;20045;-92
2022/12/28 11:40:42;;;;;;;12.05;2.20;;;;;;;9.78;100.00;97558.19;4993083;28;20052;-91
2022/12/28 11:43:53;;;;;;;13.27;1.85;;;;;;;9.76;100.00;97558.41;4991988;28;20042;-91
2022/12/28 11:46:19;;;;;;;17.00;2.65;;;;;;;9.74;100.00;97546.44;4974055;28;20042;-92
2022/12/28 11:48:55;;;;;;;11.88;1.77;;;;;;;9.73;100.00;97548.28;5000414;28;20052;-91
2022/12/28 11:51:30;;;;;;;;;;;;;;;9.60;100.00;97551.00;5006164;28;20034;-91
2022/12/28 11:54:00;;;;;;;11.32;1.85;;;;;;;9.62;100.00;97543.69;5019366;28;20012;-91
2022/12/28 11:56:46;;;;;;;13.52;2.13;;;;;;;9.59;100.00;97542.25;4996463;28;20038;-92
2022/12/28 11:59:20;;;;;;;18.85;2.97;;;;;;;9.59;100.00;97538.84;5011812;28;20509;-92
2022/12/28 12:01:48;;;;;;;22.70;3.00;;;;;;;9.58;100.00;97545.09;5012735;28;20021;-92